Time;durP1;ratioP1;P1;durP2;ratioP2;P2;SDS_P1;SDS_P2;PMS_P1;PMS_P2;Temp;Humidity;BMP_temperature;BMP_pressure;BME280_temperature;BME280_humidity;BME280_pressure;Samples;Min_cycle;Max_cycle;Signal;HPM_P1;HPM_P2
2024/02/11 00:01:19;;;;;;;13.43;8.02;;;;;;;8.46;100.00;98325.16;5007844;28;20045;-79
2024/02/11 00:03:44;;;;;;;17.13;8.85;;;;;;;8.45;100.00;98323.53;4993215;28;20053;-79
2024/02/11 00:06:12;;;;;;;13.82;9.45;;;;;;;8.42;100.00;98318.78;5011040;28;20041;-79
2024/02/11 00:08:39;;;;;;;13.02;8.13;;;;;;;8.37;100.00;98314.97;5014027;28;20029;-79
2024/02/11 00:11:06;;;;;;;11.82;8.32;;;;;;;8.36;100.00;98321.16;4996794;28;20066;-79
2024/02/11 00:13:32;;;;;;;14.88;7.93;;;;;;;8.35;100.00;98327.31;5014533;28;20034;-80
2024/02/11 00:16:01;;;;;;;13.75;8.07;;;;;;;8.35;100.00;98319.56;4994452;28;20101;-79
2024/02/11 00:18:28;;;;;;;14.32;8.18;;;;;;;8.34;100.00;98328.31;4997011;28;20039;-80
2024/02/11 00:20:54;;;;;;;11.63;8.43;;;;;;;8.35;100.00;98335.06;5031796;28;20396;-79
2024/02/11 00:23:22;;;;;;;14.02;9.10;;;;;;;8.36;100.00;98326.31;4999024;28;20029;-79
2024/02/11 00:25:48;;;;;;;12.68;9.13;;;;;;;8.36;100.00;98320.34;5027512;28;20172;-79
2024/02/11 00:28:14;;;;;;;13.07;8.65;;;;;;;8.36;100.00;98320.34;4998850;28;20034;-78
2024/02/11 00:30:39;;;;;;;15.98;9.35;;;;;;;8.36;100.00;98317.75;5003067;28;20037;-79
2024/02/11 00:33:05;;;;;;;13.63;8.05;;;;;;;8.35;100.00;98321.34;5002377;28;20062;-79
2024/02/11 00:35:31;;;;;;;13.52;8.55;;;;;;;8.34;100.00;98318.00;5015316;28;20033;-80
2024/02/11 00:37:58;;;;;;;18.30;8.30;;;;;;;8.35;100.00;98318.78;5004353;28;20028;-79
2024/02/11 00:40:24;;;;;;;16.20;8.18;;;;;;;8.34;100.00;98317.16;5017360;28;20029;-78
2024/02/11 00:42:51;;;;;;;15.32;8.68;;;;;;;8.34;100.00;98315.41;5018606;28;20112;-79
2024/02/11 00:45:16;;;;;;;16.00;9.13;;;;;;;8.35;100.00;98316.19;5015095;28;20416;-79
2024/02/11 00:47:42;;;;;;;16.88;9.55;;;;;;;8.32;100.00;98321.75;5009197;28;20037;-79
2024/02/11 00:50:11;;;;;;;15.00;9.57;;;;;;;8.33;100.00;98310.44;5023599;28;20796;-79
2024/02/11 00:52:41;;;;;;;16.20;9.70;;;;;;;8.32;100.00;98311.41;5004569;28;20096;-79
2024/02/11 00:55:10;;;;;;;15.05;9.20;;;;;;;8.29;100.00;98317.78;5004507;28;20501;-79
2024/02/11 00:57:36;;;;;;;15.80;9.05;;;;;;;8.27;100.00;98313.81;5002881;28;20037;-78
2024/02/11 01:00:09;;;;;;;12.50;8.38;;;;;;;8.28;100.00;98318.00;5026070;28;20112;-79
2024/02/11 01:02:35;;;;;;;16.05;9.27;;;;;;;8.28;100.00;98312.81;5004250;28;20033;-79
2024/02/11 01:05:01;;;;;;;16.33;8.38;;;;;;;8.29;100.00;98320.38;5015131;28;20048;-79
2024/02/11 01:07:27;;;;;;;15.15;8.93;;;;;;;8.30;100.00;98323.75;5000706;28;20030;-78
2024/02/11 01:09:52;;;;;;;13.40;8.10;;;;;;;8.31;100.00;98325.34;4996381;28;20045;-79
2024/02/11 01:12:18;;;;;;;13.57;8.88;;;;;;;8.32;100.00;98326.91;5011933;28;20030;-79
2024/02/11 01:14:43;;;;;;;14.65;9.77;;;;;;;8.31;100.00;98328.72;5020008;28;20036;-79
2024/02/11 01:17:09;;;;;;;13.32;8.73;;;;;;;8.32;100.00;98327.69;5017394;28;20438;-79
2024/02/11 01:19:35;;;;;;;15.48;8.25;;;;;;;8.33;100.00;98334.47;5020185;28;20044;-78
2024/02/11 01:22:02;;;;;;;14.30;8.13;;;;;;;8.34;100.00;98335.25;5002055;28;20172;-80
2024/02/11 01:24:27;;;;;;;15.15;9.55;;;;;;;8.35;100.00;98331.69;5005944;28;20076;-80
2024/02/11 01:26:53;;;;;;;14.95;9.70;;;;;;;8.32;100.00;98330.28;5000132;28;20037;-78
2024/02/11 01:29:18;;;;;;;22.55;9.82;;;;;;;8.28;100.00;98326.53;5034803;28;20496;-79
2024/02/11 01:31:44;;;;;;;13.65;8.38;;;;;;;8.27;100.00;98324.13;5034686;28;20233;-80
2024/02/11 01:34:10;;;;;;;14.93;8.90;;;;;;;8.25;100.00;98324.34;5001589;28;20032;-80
2024/02/11 01:36:35;;;;;;;15.77;9.10;;;;;;;8.25;100.00;98326.94;5017409;28;20040;-79
2024/02/11 01:39:00;;;;;;;16.65;9.27;;;;;;;8.25;100.00;98337.25;5017470;28;20037;-79
2024/02/11 01:41:26;;;;;;;12.25;7.72;;;;;;;8.26;100.00;98331.09;5000453;28;20053;-79
2024/02/11 01:43:52;;;;;;;15.98;8.60;;;;;;;8.28;100.00;98338.63;4998804;28;20033;-79
2024/02/11 01:46:18;;;;;;;17.42;10.07;;;;;;;8.26;100.00;98332.88;5013696;28;20045;-79
2024/02/11 01:48:43;;;;;;;13.98;8.85;;;;;;;8.26;100.00;98332.88;5034722;28;20029;-79
2024/02/11 01:51:10;;;;;;;17.63;10.30;;;;;;;8.29;100.00;98330.69;5012550;28;20029;-79
2024/02/11 01:53:37;;;;;;;15.45;9.45;;;;;;;8.27;100.00;98327.53;4994429;28;20045;-79
2024/02/11 01:56:05;;;;;;;16.08;8.93;;;;;;;8.25;100.00;98334.69;5012861;28;20038;-79
2024/02/11 01:58:32;;;;;;;13.48;9.40;;;;;;;8.26;100.00;98330.31;4997694;28;20027;-79
2024/02/11 02:00:58;;;;;;;16.92;9.65;;;;;;;8.27;100.00;98324.94;5007401;28;20045;-82
2024/02/11 02:03:24;;;;;;;18.70;10.90;;;;;;;8.26;100.00;98330.31;5008308;28;20026;-79
2024/02/11 02:05:51;;;;;;;18.95;10.77;;;;;;;8.32;100.00;98329.50;4995323;28;20037;-80
2024/02/11 02:08:17;;;;;;;18.65;11.45;;;;;;;8.35;100.00;98329.88;5013456;28;20458;-79
2024/02/11 02:10:44;;;;;;;19.50;11.48;;;;;;;8.35;100.00;98329.88;5013240;28;20037;-79
2024/02/11 02:13:09;;;;;;;22.33;11.40;;;;;;;8.42;100.00;98331.69;5033633;28;20495;-79
2024/02/11 02:15:35;;;;;;;19.92;11.77;;;;;;;8.47;100.00;98332.66;5000047;28;20037;-79
2024/02/11 02:18:00;;;;;;;20.02;11.10;;;;;;;8.57;100.00;98334.84;5001918;28;20105;-80
2024/02/11 02:20:26;;;;;;;18.92;10.40;;;;;;;8.53;100.00;98333.66;5013928;28;20048;-79
2024/02/11 02:22:51;;;;;;;19.17;10.93;;;;;;;8.55;100.00;98327.31;5016170;28;20044;-79
2024/02/11 02:25:17;;;;;;;21.40;10.73;;;;;;;8.50;100.00;98321.16;5012975;28;20044;-79
2024/02/11 02:27:43;;;;;;;19.08;12.38;;;;;;;8.58;100.00;98324.28;4999842;28;20037;-81
2024/02/11 02:30:09;;;;;;;17.13;11.45;;;;;;;8.49;100.00;98319.56;4998651;28;20041;-78
2024/02/11 02:32:34;;;;;;;21.85;10.65;;;;;;;8.47;100.00;98314.59;5003684;28;20036;-79
2024/02/11 02:35:00;;;;;;;19.13;11.55;;;;;;;8.41;100.00;98317.97;5013092;28;20068;-79
2024/02/11 02:37:26;;;;;;;18.30;10.85;;;;;;;8.47;100.00;98318.97;5029912;28;20029;-79
2024/02/11 02:39:51;;;;;;;21.63;12.52;;;;;;;8.50;100.00;98318.56;5016167;28;20443;-79
2024/02/11 02:42:17;;;;;;;24.63;12.98;;;;;;;8.48;100.00;98316.19;5033401;28;20103;-79
2024/02/11 02:44:43;;;;;;;19.70;12.18;;;;;;;8.50;100.00;98313.41;5010730;28;20036;-79
2024/02/11 02:47:11;;;;;;;20.10;12.23;;;;;;;8.51;100.00;98314.97;5014593;28;20121;-79
2024/02/11 02:49:36;;;;;;;25.23;12.68;;;;;;;8.54;100.00;98323.13;4995595;28;20038;-79
2024/02/11 02:52:02;;;;;;;23.25;11.63;;;;;;;8.72;100.00;98317.31;5014996;28;20477;-80
2024/02/11 02:54:28;;;;;;;21.70;12.95;;;;;;;8.58;100.00;98319.13;5030708;28;20033;-79
2024/02/11 02:56:54;;;;;;;20.92;12.30;;;;;;;8.59;100.00;98322.53;5030492;28;20072;-79
2024/02/11 02:59:19;;;;;;;22.65;12.30;;;;;;;8.62;100.00;98314.34;5000606;28;20061;-80
2024/02/11 03:01:46;;;;;;;23.38;12.52;;;;;;;8.56;100.00;98317.75;5013081;28;20044;-79
2024/02/11 03:04:12;;;;;;;25.45;12.93;;;;;;;8.64;100.00;98314.94;5013862;28;20037;-79
2024/02/11 03:06:40;;;;;;;22.95;12.23;;;;;;;8.53;100.00;98315.56;4999441;28;20041;-79
2024/02/11 03:09:07;;;;;;;21.38;12.10;;;;;;;8.43;100.00;98313.41;5001516;28;20018;-80
2024/02/11 03:11:33;;;;;;;22.67;13.00;;;;;;;8.44;100.00;98329.69;5014697;28;20432;-78
2024/02/11 03:14:00;;;;;;;20.45;12.07;;;;;;;8.39;100.00;98327.69;5017831;28;20033;-79
2024/02/11 03:16:27;;;;;;;22.42;12.07;;;;;;;8.34;100.00;98320.56;5011629;28;20037;-79
2024/02/11 03:18:52;;;;;;;25.92;12.95;;;;;;;8.43;100.00;98325.53;5005472;28;20033;-79
2024/02/11 03:21:19;;;;;;;19.90;12.02;;;;;;;8.37;100.00;98325.31;5003224;28;20045;-79
2024/02/11 03:23:44;;;;;;;20.42;11.48;;;;;;;8.34;100.00;98315.41;5016041;28;20033;-79
2024/02/11 03:26:10;;;;;;;20.33;12.40;;;;;;;8.37;100.00;98319.38;5037894;28;20072;-79
2024/02/11 03:28:39;;;;;;;25.33;12.25;;;;;;;8.44;100.00;98333.09;5003696;28;20029;-79
2024/02/11 03:31:06;;;;;;;25.40;14.10;;;;;;;8.37;100.00;98333.06;4997151;28;20056;-79
2024/02/11 03:33:32;;;;;;;19.95;11.32;;;;;;;8.32;100.00;98329.50;5013702;28;20428;-78
2024/02/11 03:35:57;;;;;;;25.00;13.98;;;;;;;8.36;100.00;98328.91;4992902;28;20037;-79
2024/02/11 03:38:26;;;;;;;23.02;12.93;;;;;;;8.32;100.00;98332.88;5013418;28;20041;-79
2024/02/11 03:40:55;;;;;;;27.63;13.57;;;;;;;8.46;100.00;98335.47;5014772;28;20033;-79
2024/02/11 03:43:22;;;;;;;28.50;14.07;;;;;;;8.39;100.00;98331.06;5011287;28;21926;-79
2024/02/11 03:45:49;;;;;;;26.35;13.43;;;;;;;8.33;100.00;98337.03;5014959;28;20120;-79
2024/02/11 03:48:14;;;;;;;22.23;12.85;;;;;;;8.45;100.00;98339.84;4996195;28;20061;-79
2024/02/11 03:50:40;;;;;;;24.80;13.45;;;;;;;8.39;100.00;98340.63;4994985;28;20068;-80
2024/02/11 03:53:06;;;;;;;22.92;12.68;;;;;;;8.35;100.00;98337.63;5011499;28;20040;-79
2024/02/11 03:55:32;;;;;;;21.25;13.43;;;;;;;8.37;100.00;98342.59;5000081;28;20037;-80
2024/02/11 03:58:04;;;;;;;27.25;14.13;;;;;;;8.35;100.00;98342.00;5005617;28;20040;-80
2024/02/11 04:00:31;;;;;;;19.85;12.65;;;;;;;8.31;100.00;98348.56;5011654;28;20033;-79
2024/02/11 04:02:59;;;;;;;21.48;12.68;;;;;;;8.29;100.00;98353.94;5010074;28;20057;-79
2024/02/11 04:05:28;;;;;;;22.70;13.57;;;;;;;8.28;100.00;98359.31;4987617;28;20093;-79
2024/02/11 04:07:55;;;;;;;21.52;13.38;;;;;;;8.27;100.00;98357.69;4994712;28;20033;-79
2024/02/11 04:10:23;;;;;;;22.35;11.73;;;;;;;8.27;100.00;98365.44;5009594;28;20470;-79
2024/02/11 04:12:52;;;;;;;22.23;12.98;;;;;;;8.26;100.00;98364.66;5012654;28;20025;-79
2024/02/11 04:15:24;;;;;;;22.48;12.55;;;;;;;8.27;100.00;98371.41;5007190;28;20037;-79
2024/02/11 04:17:53;;;;;;;21.65;12.45;;;;;;;8.24;100.00;98364.06;4993130;28;20037;-79
2024/02/11 04:20:29;;;;;;;25.25;13.98;;;;;;;8.31;100.00;98367.44;5027788;28;20096;-79
2024/02/11 04:22:58;;;;;;;25.45;14.13;;;;;;;8.35;100.00;98373.78;5006756;28;20068;-79
2024/02/11 04:25:25;;;;;;;20.50;13.40;;;;;;;8.31;100.00;98382.94;5011054;28;20085;-78
2024/02/11 04:27:51;;;;;;;28.65;14.75;;;;;;;8.41;100.00;98386.91;5024232;28;20041;-78
2024/02/11 04:30:19;;;;;;;25.10;13.20;;;;;;;8.34;100.00;98392.06;4995281;28;20195;-79
2024/02/11 04:32:48;;;;;;;22.98;14.25;;;;;;;8.33;100.00;98393.06;5012037;28;20040;-79
2024/02/11 04:35:15;;;;;;;24.95;13.82;;;;;;;8.34;100.00;98397.22;4997001;28;20037;-79
2024/02/11 04:37:49;;;;;;;27.90;14.70;;;;;;;8.37;100.00;98402.00;5017030;28;20034;-79
2024/02/11 04:40:16;;;;;;;26.42;14.52;;;;;;;8.34;100.00;98408.38;5009888;28;20061;-79
2024/02/11 04:42:47;;;;;;;25.48;14.68;;;;;;;8.43;100.00;98415.94;5018246;28;20068;-79
2024/02/11 04:45:16;;;;;;;25.30;14.07;;;;;;;8.37;100.00;98407.94;5028126;28;20048;-78
2024/02/11 04:47:46;;;;;;;23.85;14.02;;;;;;;8.34;100.00;98408.38;5008369;28;20419;-78
2024/02/11 04:50:15;;;;;;;25.42;13.20;;;;;;;8.32;100.00;98410.31;4991875;28;20576;-79
2024/02/11 04:52:47;;;;;;;25.40;13.88;;;;;;;8.33;100.00;98411.94;5014817;28;20570;-78
2024/02/11 04:55:12;;;;;;;30.42;15.57;;;;;;;8.37;100.00;98417.50;5008486;28;20033;-79
2024/02/11 04:57:38;;;;;;;28.85;15.20;;;;;;;8.37;100.00;98413.13;4999392;28;20033;-79
2024/02/11 05:00:23;;;;;;;30.23;16.25;;;;;;;8.41;100.00;98410.13;4994662;28;20033;-79
2024/02/11 05:02:50;;;;;;;24.67;14.90;;;;;;;8.36;100.00;98414.13;4994013;28;20025;-79
2024/02/11 05:05:18;;;;;;;31.63;14.45;;;;;;;8.37;100.00;98418.28;4996434;28;20037;-79
2024/02/11 05:07:44;;;;;;;24.90;14.90;;;;;;;8.35;100.00;98414.31;5030702;28;20068;-79
2024/02/11 05:10:11;;;;;;;22.95;13.27;;;;;;;8.35;100.00;98419.47;5013467;28;20480;-79
2024/02/11 05:12:37;;;;;;;26.08;14.45;;;;;;;8.35;100.00;98420.28;4991033;28;20038;-79
2024/02/11 05:15:04;;;;;;;26.50;14.77;;;;;;;8.44;100.00;98427.84;5010316;28;20111;-81
2024/02/11 05:17:29;;;;;;;28.20;15.02;;;;;;;8.46;100.00;98424.06;4991090;28;20038;-80
2024/02/11 05:19:55;;;;;;;23.70;13.88;;;;;;;8.43;100.00;98428.84;5013330;28;20040;-80
2024/02/11 05:22:20;;;;;;;26.67;14.05;;;;;;;8.55;100.00;98432.41;4993147;28;20022;-81
2024/02/11 05:24:47;;;;;;;23.35;12.18;;;;;;;8.67;100.00;98438.56;5001023;28;20042;-81
2024/02/11 05:27:13;;;;;;;10.90;5.20;;;;;;;8.51;100.00;98438.97;4999748;28;20034;-81
2024/02/11 05:29:39;;;;;;;5.97;4.63;;;;;;;8.48;100.00;98444.53;5001979;28;20045;-80
2024/02/11 05:32:06;;;;;;;4.97;3.50;;;;;;;8.43;100.00;98446.91;5015372;28;20033;-80
2024/02/11 05:34:33;;;;;;;4.20;3.00;;;;;;;8.35;100.00;98440.94;5023617;28;20033;-80
2024/02/11 05:37:00;;;;;;;4.55;2.88;;;;;;;8.28;100.00;98455.63;5015370;28;20037;-80
2024/02/11 05:39:30;;;;;;;3.60;2.70;;;;;;;8.26;100.00;98452.44;5032794;28;20037;-80
2024/02/11 05:41:55;;;;;;;6.55;2.97;;;;;;;8.17;100.00;98461.38;5012643;28;20488;-80
2024/02/11 05:44:22;;;;;;;3.50;2.22;;;;;;;8.01;100.00;98474.66;5016042;28;20044;-80
2024/02/11 05:46:47;;;;;;;7.05;2.80;;;;;;;7.74;100.00;98466.84;4999666;28;20041;-81
2024/02/11 05:49:13;;;;;;;7.82;3.30;;;;;;;7.63;100.00;98481.09;5001035;28;20029;-80
2024/02/11 05:51:38;;;;;;;10.73;3.42;;;;;;;7.59;100.00;98483.28;5013474;28;20041;-79
2024/02/11 05:54:04;;;;;;;8.70;3.42;;;;;;;7.61;100.00;98485.66;5016236;28;20052;-80
2024/02/11 05:56:30;;;;;;;9.25;3.67;;;;;;;7.67;100.00;98494.41;5006310;28;20038;-79
2024/02/11 05:58:55;;;;;;;13.38;4.45;;;;;;;7.60;100.00;98499.53;5004254;28;20028;-78
2024/02/11 06:01:20;;;;;;;17.77;5.70;;;;;;;7.38;100.00;98497.06;5003360;28;20480;-81
2024/02/11 06:03:46;;;;;;;18.85;4.28;;;;;;;7.35;100.00;98504.41;5030901;28;20055;-78
2024/02/11 06:06:13;;;;;;;16.25;4.15;;;;;;;7.35;100.00;98502.59;5021313;28;20037;-78
2024/02/11 06:08:38;;;;;;;19.42;4.38;;;;;;;7.28;100.00;98500.97;5007014;28;20032;-79
2024/02/11 06:11:04;;;;;;;16.92;5.05;;;;;;;7.29;100.00;98498.22;5000619;28;20033;-79
2024/02/11 06:13:30;;;;;;;17.23;5.07;;;;;;;7.26;100.00;98496.00;5002837;28;20021;-78
2024/02/11 06:15:55;;;;;;;11.88;3.58;;;;;;;7.25;100.00;98496.19;4999735;28;20093;-78
2024/02/11 06:18:22;;;;;;;15.23;5.10;;;;;;;7.26;100.00;98503.75;4997688;28;20620;-79
2024/02/11 06:20:47;;;;;;;15.88;3.60;;;;;;;7.35;100.00;98501.81;5015379;28;20599;-78
2024/02/11 06:23:13;;;;;;;14.00;4.05;;;;;;;7.26;100.00;98500.38;5015388;28;20021;-79
2024/02/11 06:25:38;;;;;;;20.17;4.05;;;;;;;7.22;100.00;98498.16;4998781;28;20103;-79
2024/02/11 06:28:04;;;;;;;17.55;4.05;;;;;;;7.22;100.00;98511.06;5011150;28;20033;-79
2024/02/11 06:30:30;;;;;;;19.65;4.57;;;;;;;7.30;100.00;98509.31;4997044;28;20034;-79
2024/02/11 06:32:56;;;;;;;16.13;4.25;;;;;;;7.35;100.00;98512.13;5009372;28;20021;-78
2024/02/11 06:35:21;;;;;;;16.95;3.65;;;;;;;7.34;100.00;98516.47;5012391;28;20034;-79
2024/02/11 06:37:48;;;;;;;19.35;6.05;;;;;;;7.27;100.00;98520.81;5018784;28;20048;-79
2024/02/11 06:40:22;;;;;;;22.55;6.28;;;;;;;7.33;100.00;98532.94;5013474;28;20042;-79
2024/02/11 06:42:47;;;;;;;35.13;7.82;;;;;;;7.33;100.00;98530.34;5030523;28;20038;-78
2024/02/11 06:45:13;;;;;;;16.77;4.93;;;;;;;7.26;100.00;98539.84;5012474;28;20055;-78
2024/02/11 06:47:40;;;;;;;23.80;4.00;;;;;;;7.29;100.00;98541.22;5014406;28;20096;-78
2024/02/11 06:50:08;;;;;;;17.00;4.00;;;;;;;7.29;100.00;98548.97;4995360;28;20085;-79
2024/02/11 06:52:34;;;;;;;22.30;4.30;;;;;;;7.21;100.00;98548.16;4997652;28;20896;-79
2024/02/11 06:55:01;;;;;;;11.45;3.72;;;;;;;7.21;100.00;98555.88;5008776;28;20041;-79
2024/02/11 06:57:26;;;;;;;14.80;4.65;;;;;;;7.19;100.00;98559.59;4996670;28;20087;-79
2024/02/11 06:59:52;;;;;;;13.95;3.53;;;;;;;7.24;100.00;98564.22;5012300;28;20112;-79
2024/02/11 07:02:18;;;;;;;22.27;4.10;;;;;;;7.38;100.00;98573.59;4997213;28;20400;-79
2024/02/11 07:04:44;;;;;;;15.23;4.40;;;;;;;7.34;100.00;98572.41;5012197;28;20029;-78
2024/02/11 07:07:09;;;;;;;18.55;3.83;;;;;;;7.34;100.00;98582.72;5025499;28;20431;-79
2024/02/11 07:09:39;;;;;;;20.05;4.70;;;;;;;7.31;100.00;98581.31;5000282;28;20051;-78
2024/02/11 07:12:06;;;;;;;27.45;4.40;;;;;;;7.28;100.00;98581.69;5010544;28;20040;-79
2024/02/11 07:14:32;;;;;;;23.02;5.28;;;;;;;7.28;100.00;98586.84;4991937;28;20067;-78
2024/02/11 07:17:00;;;;;;;20.67;5.32;;;;;;;7.27;100.00;98597.34;4993688;28;20061;-78
2024/02/11 07:19:26;;;;;;;88.10;27.40;;;;;;;7.22;100.00;98600.50;5012053;28;20062;-79
2024/02/11 07:21:54;;;;;;;57.45;20.92;;;;;;;7.32;100.00;98602.72;5010698;28;20037;-79
2024/02/11 07:24:22;;;;;;;34.45;12.18;;;;;;;7.34;100.00;98604.13;5010050;28;20110;-79
2024/02/11 07:26:47;;;;;;;75.70;29.45;;;;;;;7.27;100.00;98608.47;5026199;28;20041;-79
2024/02/11 07:29:14;;;;;;;39.47;16.95;;;;;;;7.33;100.00;98609.50;5024726;28;20045;-79
2024/02/11 07:31:41;;;;;;;21.25;9.25;;;;;;;7.32;100.00;98615.63;5012423;28;20032;-79
2024/02/11 07:34:06;;;;;;;31.05;14.85;;;;;;;7.41;100.00;98612.72;4996880;28;20025;-79
2024/02/11 07:36:32;;;;;;;27.17;10.30;;;;;;;7.38;100.00;98627.75;5029637;28;20036;-79
2024/02/11 07:38:57;;;;;;;29.17;11.15;;;;;;;7.37;100.00;98623.59;5012261;28;20034;-79
2024/02/11 07:41:23;;;;;;;34.13;12.45;;;;;;;7.36;100.00;98634.88;4995264;28;20097;-79
2024/02/11 07:43:49;;;;;;;20.92;9.85;;;;;;;7.31;100.00;98644.94;4996353;28;20040;-79
2024/02/11 07:46:16;;;;;;;36.20;17.88;;;;;;;7.24;100.00;98655.22;5012494;28;20045;-79
2024/02/11 07:48:42;;;;;;;29.55;11.52;;;;;;;7.31;100.00;98655.25;4994088;28;20071;-79
2024/02/11 07:51:08;;;;;;;40.92;20.40;;;;;;;7.33;100.00;98659.28;5008850;28;20411;-78
2024/02/11 07:53:36;;;;;;;26.52;9.00;;;;;;;7.41;100.00;98663.50;4998607;28;20029;-79
2024/02/11 07:56:02;;;;;;;25.77;10.43;;;;;;;7.39;100.00;98676.56;5016008;28;20064;-79
2024/02/11 07:58:27;;;;;;;34.38;14.00;;;;;;;7.34;100.00;98676.31;4995910;28;20049;-79
2024/02/11 08:00:53;;;;;;;30.52;14.18;;;;;;;7.31;100.00;98678.47;5005874;28;20116;-79
2024/02/11 08:03:21;;;;;;;26.58;11.95;;;;;;;7.28;100.00;98679.66;5013563;28;20033;-80
2024/02/11 08:05:48;;;;;;;29.38;14.85;;;;;;;7.39;100.00;98681.72;5009985;28;20496;-79
2024/02/11 08:08:13;;;;;;;23.42;8.65;;;;;;;7.34;100.00;98683.25;4996171;28;20093;-79
2024/02/11 08:10:38;;;;;;;25.20;6.45;;;;;;;7.36;100.00;98681.28;5000382;28;21510;-79
2024/02/11 08:13:07;;;;;;;18.55;9.63;;;;;;;7.44;100.00;98683.75;5011111;28;20519;-79
2024/02/11 08:15:34;;;;;;;21.38;8.77;;;;;;;7.43;100.00;98684.72;5006481;28;20038;-78
2024/02/11 08:18:04;;;;;;;25.95;12.20;;;;;;;7.46;100.00;98686.94;4994400;28;20572;-79
2024/02/11 08:20:30;;;;;;;49.20;23.95;;;;;;;7.42;100.00;98690.84;4987162;28;20075;-79
2024/02/11 08:22:55;;;;;;;21.60;11.23;;;;;;;7.55;100.00;98685.81;5011599;28;20153;-79
2024/02/11 08:25:21;;;;;;;21.65;9.13;;;;;;;7.48;100.00;98695.28;4994987;28;20037;-78
2024/02/11 08:27:46;;;;;;;21.23;9.07;;;;;;;7.44;100.00;98696.66;5025239;28;20033;-78
2024/02/11 08:30:12;;;;;;;20.58;9.07;;;;;;;7.44;100.00;98709.53;5010684;28;20041;-80
2024/02/11 08:32:38;;;;;;;15.93;6.78;;;;;;;7.48;100.00;98702.19;5027770;28;20469;-79
2024/02/11 08:35:08;;;;;;;20.38;8.88;;;;;;;7.48;100.00;98708.19;4988272;28;20508;-79
2024/02/11 08:37:34;;;;;;;19.33;10.05;;;;;;;7.50;100.00;98715.75;5011011;28;20044;-79
2024/02/11 08:40:00;;;;;;;22.65;10.20;;;;;;;7.45;100.00;98724.00;5013885;28;20508;-78
2024/02/11 08:42:27;;;;;;;33.17;17.00;;;;;;;7.53;100.00;98718.72;5013491;28;20030;-79
2024/02/11 08:44:54;;;;;;;28.00;11.95;;;;;;;7.52;100.00;98719.72;5012311;28;20068;-79
2024/02/11 08:47:20;;;;;;;32.75;13.93;;;;;;;7.48;100.00;98721.06;4996127;28;20400;-79
2024/02/11 08:49:47;;;;;;;49.75;20.33;;;;;;;7.58;100.00;98721.53;5032249;28;20045;-78
2024/02/11 08:52:12;;;;;;;20.25;8.00;;;;;;;7.58;100.00;98729.28;4998652;28;20504;-80
2024/02/11 08:54:38;;;;;;;19.17;7.68;;;;;;;7.54;100.00;98733.22;5015481;28;20045;-79
2024/02/11 08:57:04;;;;;;;29.13;10.18;;;;;;;7.59;100.00;98736.03;5013695;28;20043;-79
2024/02/11 08:59:30;;;;;;;28.52;10.43;;;;;;;7.67;100.00;98739.47;4998883;28;20033;-79
2024/02/11 09:01:56;;;;;;;14.27;6.50;;;;;;;7.70;100.00;98734.72;5016096;28;20045;-79
2024/02/11 09:04:23;;;;;;;17.33;6.85;;;;;;;7.64;100.00;98737.25;5013941;28;20157;-79
2024/02/11 09:06:51;;;;;;;23.83;7.88;;;;;;;7.69;100.00;98750.41;5014300;28;20035;-79
2024/02/11 09:09:25;;;;;;;20.35;8.02;;;;;;;7.65;100.00;98744.00;5029686;28;20811;-79
2024/02/11 09:11:56;;;;;;;20.40;7.65;;;;;;;7.68;100.00;98749.59;5015827;28;20037;-79
2024/02/11 09:14:25;;;;;;;23.00;8.38;;;;;;;7.70;100.00;98757.94;5012361;28;20029;-79
2024/02/11 09:16:51;;;;;;;19.58;7.45;;;;;;;7.72;100.00;98756.00;4996522;28;20045;-79
2024/02/11 09:19:17;;;;;;;21.23;7.80;;;;;;;7.76;100.00;98754.63;5000709;28;20022;-79
2024/02/11 09:21:42;;;;;;;20.45;6.65;;;;;;;7.86;100.00;98759.47;5013064;28;20403;-79
2024/02/11 09:24:08;;;;;;;20.23;7.32;;;;;;;7.89;100.00;98756.50;5014998;28;20467;-79
2024/02/11 09:26:33;;;;;;;23.10;7.80;;;;;;;7.94;100.00;98758.50;5017792;28;20095;-79
2024/02/11 09:28:59;;;;;;;16.30;6.93;;;;;;;7.89;100.00;98766.84;4998024;28;20029;-79
2024/02/11 09:31:24;;;;;;;18.10;7.35;;;;;;;7.87;100.00;98780.88;5012193;28;20033;-79
2024/02/11 09:33:50;;;;;;;18.00;6.63;;;;;;;8.03;100.00;98777.25;4999303;28;20026;-79
2024/02/11 09:36:15;;;;;;;19.60;7.35;;;;;;;7.98;100.00;98772.63;4996291;28;20038;-79
2024/02/11 09:38:40;;;;;;;15.00;7.28;;;;;;;7.98;100.00;98778.59;4999546;28;20017;-79
2024/02/11 09:41:06;;;;;;;19.73;8.75;;;;;;;8.03;100.00;98779.81;5012678;28;20055;-79
2024/02/11 09:43:37;;;;;;;22.77;7.43;;;;;;;8.03;100.00;98779.81;4998251;28;20184;-79
2024/02/11 09:46:03;;;;;;;18.75;6.78;;;;;;;8.08;100.00;98783.44;5031718;28;20037;-78
2024/02/11 09:48:31;;;;;;;15.75;6.45;;;;;;;8.13;100.00;98788.81;5014822;28;20524;-79
2024/02/11 09:50:58;;;;;;;22.17;7.55;;;;;;;8.17;100.00;98786.66;5002894;28;20064;-79
2024/02/11 09:53:25;;;;;;;14.57;6.57;;;;;;;8.19;100.00;98787.25;5000835;28;20033;-79
2024/02/11 09:55:51;;;;;;;21.85;7.05;;;;;;;8.19;100.00;98795.00;5015908;28;20407;-79
2024/02/11 09:58:17;;;;;;;19.38;6.07;;;;;;;8.25;100.00;98796.84;5000145;28;20041;-80
2024/02/11 10:00:42;;;;;;;19.83;5.88;;;;;;;8.31;100.00;98805.63;5012195;28;20040;-79
2024/02/11 10:03:09;;;;;;;21.38;6.18;;;;;;;8.43;100.00;98811.09;5025045;28;20538;-79
2024/02/11 10:05:37;;;;;;;18.13;5.45;;;;;;;8.36;100.00;98804.06;4993856;28;20049;-79
2024/02/11 10:08:13;;;;;;;14.23;5.97;;;;;;;8.44;100.00;98797.16;5030915;28;20026;-78
2024/02/11 10:10:39;;;;;;;20.23;5.80;;;;;;;8.53;100.00;98803.78;5029062;28;20085;-78
2024/02/11 10:13:07;;;;;;;15.80;5.35;;;;;;;8.49;100.00;98799.97;4995701;28;20037;-79
2024/02/11 10:15:38;;;;;;;19.80;5.70;;;;;;;8.53;100.00;98799.44;4996084;28;20030;-78
2024/02/11 10:18:07;;;;;;;10.27;5.55;;;;;;;8.56;100.00;98808.56;5016298;28;20041;-79
2024/02/11 10:20:36;;;;;;;15.30;5.32;;;;;;;8.54;100.00;98813.13;5007003;28;20038;-79
2024/02/11 10:23:04;;;;;;;17.13;5.60;;;;;;;8.67;100.00;98820.94;4995119;28;20060;-79
2024/02/11 10:25:31;;;;;;;16.00;5.22;;;;;;;8.72;100.00;98818.59;4994487;28;20092;-79
2024/02/11 10:27:56;;;;;;;15.00;4.90;;;;;;;8.75;100.00;98813.03;5013222;28;20128;-79
2024/02/11 10:30:22;;;;;;;16.95;4.95;;;;;;;8.84;100.00;98815.47;4997681;28;20496;-79
2024/02/11 10:32:47;;;;;;;15.70;5.30;;;;;;;8.82;100.00;98814.84;5012667;28;20033;-79
2024/02/11 10:35:15;;;;;;;20.17;5.18;;;;;;;8.81;100.00;98819.22;4995898;28;20060;-79
2024/02/11 10:37:47;;;;;;;19.00;4.93;;;;;;;8.89;100.00;98826.00;5012712;28;20113;-79
2024/02/11 10:40:12;;;;;;;11.53;4.20;;;;;;;8.91;100.00;98817.06;5028611;28;20049;-78
2024/02/11 10:42:41;;;;;;;17.13;4.78;;;;;;;9.05;100.00;98817.91;5016250;28;20030;-78
2024/02/11 10:45:10;;;;;;;22.35;4.90;;;;;;;9.04;100.00;98810.34;5010339;28;20100;-79
2024/02/11 10:47:39;;;;;;;15.90;4.45;;;;;;;9.06;100.00;98806.59;5013967;28;20075;-78
2024/02/11 10:50:05;;;;;;;20.35;5.15;;;;;;;9.08;100.00;98814.94;5012750;28;20118;-78
2024/02/11 10:52:36;;;;;;;16.00;4.50;;;;;;;9.10;100.00;98812.97;5025557;28;20533;-78
2024/02/11 10:55:03;;;;;;;15.60;4.68;;;;;;;9.17;100.00;98805.22;5009602;28;20064;-78
2024/02/11 10:57:34;;;;;;;10.48;3.35;;;;;;;9.15;100.00;98809.78;5012577;28;20029;-77
2024/02/11 11:00:01;;;;;;;15.00;3.95;;;;;;;9.28;100.00;98807.22;4988781;28;20033;-78
2024/02/11 11:02:31;;;;;;;18.33;3.90;;;;;;;9.16;100.00;98809.59;5033139;28;20052;-78
2024/02/11 11:05:03;;;;;;;16.35;4.03;;;;;;;9.25;100.00;98799.88;5013027;28;20064;-78
2024/02/11 11:07:31;;;;;;;17.05;3.70;;;;;;;9.30;100.00;98802.66;5018327;28;20033;-79
2024/02/11 11:09:57;;;;;;;11.77;3.35;;;;;;;9.27;100.00;98808.22;5011698;28;20041;-79
2024/02/11 11:12:24;;;;;;;13.52;3.60;;;;;;;9.35;100.00;98805.47;4993892;28;20034;-78
2024/02/11 11:14:57;;;;;;;12.93;3.67;;;;;;;9.47;100.00;98812.63;5008410;28;20053;-81
2024/02/11 11:17:22;;;;;;;13.77;3.15;;;;;;;9.40;100.00;98807.47;5011575;28;20036;-78
2024/02/11 11:19:52;;;;;;;14.00;3.55;;;;;;;9.45;100.00;98804.28;4993500;28;20440;-79